createdAt,value
2017-07-26T00:00:48.094Z,1007.29
2017-07-26T00:01:56.972Z,1007.25
2017-07-26T00:03:06.178Z,1007.27
2017-07-26T00:04:15.707Z,1007.3
2017-07-26T00:05:25.387Z,1007.25
2017-07-26T00:06:34.914Z,1007.29
2017-07-26T00:07:44.120Z,1007.24
2017-07-26T00:08:53.975Z,1007.23
2017-07-26T00:10:03.845Z,1007.23
2017-07-26T00:11:13.847Z,1007.24
2017-07-26T00:12:23.695Z,1007.23
2017-07-26T00:13:32.897Z,1007.27
2017-07-26T00:14:42.107Z,1007.22
2017-07-26T00:15:51.635Z,1007.3
2017-07-26T00:17:01.262Z,1007.32
2017-07-26T00:18:10.472Z,1007.34
2017-07-26T00:19:19.355Z,1007.39
2017-07-26T00:20:28.236Z,1007.41
2017-07-26T00:21:37.116Z,1007.35
2017-07-26T00:22:47.121Z,1007.38
2017-07-26T00:23:56.653Z,1007.36
2017-07-26T00:25:06.830Z,1007.4
2017-07-26T00:26:16.360Z,1007.39
2017-07-26T00:27:25.890Z,1007.37
2017-07-26T00:28:34.822Z,1007.37
2017-07-26T00:29:44.033Z,1007.36
2017-07-26T00:30:53.238Z,1007.4
2017-07-26T00:32:02.769Z,1007.43
2017-07-26T00:33:12.628Z,1007.44
2017-07-26T00:34:21.887Z,1007.41
2017-07-26T00:35:31.745Z,1007.45
2017-07-26T00:36:41.601Z,1007.42
2017-07-26T00:37:50.490Z,1007.48
2017-07-26T00:39:00.339Z,1007.46
2017-07-26T00:40:09.374Z,1007.44
2017-07-26T00:41:18.580Z,1007.45
2017-07-26T00:42:28.433Z,1007.48
2017-07-26T00:43:38.282Z,1007.46
2017-07-26T00:44:47.490Z,1007.46
2017-07-26T00:45:57.406Z,1007.48
2017-07-26T00:47:06.936Z,1007.48
2017-07-26T00:48:16.792Z,1007.42
2017-07-26T00:49:26.002Z,1007.46
2017-07-26T00:50:35.208Z,1007.47
2017-07-26T00:51:44.726Z,1007.43
2017-07-26T00:52:54.906Z,1007.43
2017-07-26T00:54:04.764Z,1007.44
2017-07-26T00:55:14.302Z,1007.38
2017-07-26T00:56:23.827Z,1007.38
2017-07-26T00:57:32.857Z,1007.38
2017-07-26T00:58:41.739Z,1007.4
2017-07-26T00:59:50.971Z,1007.36
2017-07-26T01:01:00.499Z,1007.33
2017-07-26T01:02:10.027Z,1007.34
2017-07-26T01:03:19.384Z,1007.36
2017-07-26T01:04:28.592Z,1007.31
2017-07-26T01:05:37.797Z,1007.35
2017-07-26T01:06:46.679Z,1007.34
2017-07-26T01:07:56.535Z,1007.31
2017-07-26T01:09:06.119Z,1007.28
2017-07-26T01:10:14.995Z,1007.3
2017-07-26T01:11:24.522Z,1007.34
2017-07-26T01:12:34.372Z,1007.32
2017-07-26T01:13:43.579Z,1007.29
2017-07-26T01:14:52.781Z,1007.29
2017-07-26T01:16:02.311Z,1007.31
2017-07-26T01:17:11.519Z,1007.34
2017-07-26T01:18:21.371Z,1007.31
2017-07-26T01:19:30.585Z,1007.35
2017-07-26T01:20:40.188Z,1007.34
2017-07-26T01:21:49.718Z,1007.39
2017-07-26T01:22:59.243Z,1007.36
2017-07-26T01:24:08.447Z,1007.37
2017-07-26T01:25:17.976Z,1007.37
2017-07-26T01:26:27.329Z,1007.36
2017-07-26T01:27:36.858Z,1007.38
2017-07-26T01:28:46.062Z,1007.38
2017-07-26T01:29:55.290Z,1007.41
2017-07-26T01:31:04.818Z,1007.4
2017-07-26T01:32:14.125Z,1007.4
2017-07-26T01:33:23.005Z,1007.38
2017-07-26T01:34:31.886Z,1007.36
2017-07-26T01:35:41.735Z,1007.33
2017-07-26T01:36:51.591Z,1007.34
2017-07-26T01:38:00.844Z,1007.37
2017-07-26T01:39:10.693Z,1007.35
2017-07-26T01:40:20.231Z,1007.39
2017-07-26T01:41:29.446Z,1007.37
2017-07-26T01:42:38.649Z,1007.37
2017-07-26T01:43:48.282Z,1007.42
2017-07-26T01:44:57.163Z,1007.4
2017-07-26T01:46:07.053Z,1007.38
2017-07-26T01:47:16.263Z,1007.35
2017-07-26T01:48:26.114Z,1007.38
2017-07-26T01:49:35.003Z,1007.4
2017-07-26T01:50:44.532Z,1007.4
2017-07-26T01:51:53.740Z,1007.38
2017-07-26T01:53:02.631Z,1007.41
2017-07-26T01:54:12.165Z,1007.38
2017-07-26T01:55:21.101Z,1007.36
2017-07-26T01:56:30.632Z,1007.37
2017-07-26T01:57:40.166Z,1007.3
2017-07-26T01:58:50.017Z,1007.33
2017-07-26T01:59:59.547Z,1007.37
2017-07-26T02:01:09.249Z,1007.36
2017-07-26T02:02:18.450Z,1007.34
2017-07-26T02:03:27.977Z,1007.35
2017-07-26T02:04:37.181Z,1007.31
2017-07-26T02:05:46.067Z,1007.25
2017-07-26T02:06:55.597Z,1007.29
2017-07-26T02:08:04.477Z,1007.26
2017-07-26T02:09:14.008Z,1007.32
2017-07-26T02:10:23.216Z,1007.29
2017-07-26T02:11:32.794Z,1007.31
2017-07-26T02:12:41.997Z,1007.3
2017-07-26T02:13:51.529Z,1007.29
2017-07-26T02:15:01.385Z,1007.35
2017-07-26T02:16:11.245Z,1007.35
2017-07-26T02:17:20.452Z,1007.38
2017-07-26T02:18:30.086Z,1007.42
2017-07-26T02:19:39.291Z,1007.48
2017-07-26T02:20:48.174Z,1007.45
2017-07-26T02:21:57.381Z,1007.43
2017-07-26T02:23:06.907Z,1007.41
2017-07-26T02:24:16.486Z,1007.42
2017-07-26T02:25:25.369Z,1007.42
2017-07-26T02:26:34.580Z,1007.39
2017-07-26T02:27:44.110Z,1007.38
2017-07-26T02:28:53.312Z,1007.38
2017-07-26T02:30:02.989Z,1007.42
2017-07-26T02:31:12.845Z,1007.38
2017-07-26T02:32:22.051Z,1007.36
2017-07-26T02:33:31.904Z,1007.43
2017-07-26T02:34:41.112Z,1007.39
2017-07-26T02:35:50.797Z,1007.38
2017-07-26T02:37:00.327Z,1007.38
2017-07-26T02:38:10.192Z,1007.4
2017-07-26T02:39:20.063Z,1007.44
2017-07-26T02:40:29.278Z,1007.4
2017-07-26T02:41:38.472Z,1007.4
2017-07-26T02:42:48.342Z,1007.43
2017-07-26T02:43:57.874Z,1007.42
2017-07-26T02:45:07.740Z,1007.41
2017-07-26T02:46:16.973Z,1007.4
2017-07-26T02:47:26.508Z,1007.43
2017-07-26T02:48:36.033Z,1007.43
2017-07-26T02:49:45.569Z,1007.44
2017-07-26T02:50:55.424Z,1007.49
2017-07-26T02:52:04.629Z,1007.4
2017-07-26T02:53:13.909Z,1007.41
2017-07-26T02:54:23.444Z,1007.46
2017-07-26T02:55:33.021Z,1007.44
2017-07-26T02:56:42.874Z,1007.43
2017-07-26T02:57:52.402Z,1007.41
2017-07-26T02:59:02.839Z,1007.45
2017-07-26T03:00:12.374Z,1007.45
2017-07-26T03:01:21.899Z,1007.43
2017-07-26T03:02:31.425Z,1007.45
2017-07-26T03:03:40.632Z,1007.42
2017-07-26T03:04:49.662Z,1007.45
2017-07-26T03:05:59.515Z,1007.47
2017-07-26T03:07:09.691Z,1007.51
2017-07-26T03:08:19.221Z,1007.49
2017-07-26T03:09:29.100Z,1007.52
2017-07-26T03:10:39.109Z,1007.53
2017-07-26T03:11:48.645Z,1007.51
2017-07-26T03:12:57.524Z,1007.56
2017-07-26T03:14:07.052Z,1007.59
2017-07-26T03:15:16.909Z,1007.56
2017-07-26T03:16:26.520Z,1007.57
2017-07-26T03:17:36.051Z,1007.57
2017-07-26T03:18:44.932Z,1007.55
2017-07-26T03:19:54.779Z,1007.53
2017-07-26T03:21:03.997Z,1007.54
2017-07-26T03:22:13.674Z,1007.5
2017-07-26T03:23:23.200Z,1007.52
2017-07-26T03:24:32.726Z,1007.5
2017-07-26T03:25:41.931Z,1007.47
2017-07-26T03:26:51.455Z,1007.46
2017-07-26T03:28:01.631Z,1007.44
2017-07-26T03:29:11.184Z,1007.5
2017-07-26T03:30:20.388Z,1007.47
2017-07-26T03:31:30.253Z,1007.44
2017-07-26T03:32:39.458Z,1007.47
2017-07-26T03:33:49.390Z,1007.43
2017-07-26T03:34:58.600Z,1007.43
2017-07-26T03:36:07.825Z,1007.39
2017-07-26T03:37:17.037Z,1007.38
2017-07-26T03:38:26.249Z,1007.39
2017-07-26T03:39:35.753Z,1007.34
2017-07-26T03:40:45.605Z,1007.32
2017-07-26T03:41:54.808Z,1007.34
2017-07-26T03:43:04.668Z,1007.32
2017-07-26T03:44:13.553Z,1007.31
2017-07-26T03:45:23.083Z,1007.27
2017-07-26T03:46:32.610Z,1007.29
2017-07-26T03:47:42.139Z,1007.28
2017-07-26T03:48:51.344Z,1007.29
2017-07-26T03:50:00.871Z,1007.32
2017-07-26T03:51:10.075Z,1007.32
2017-07-26T03:52:19.608Z,1007.35
2017-07-26T03:53:28.815Z,1007.33
2017-07-26T03:54:38.670Z,1007.31
2017-07-26T03:55:47.874Z,1007.31
2017-07-26T03:56:57.699Z,1007.29
2017-07-26T03:58:07.231Z,1007.31
2017-07-26T03:59:16.797Z,1007.26
2017-07-26T04:00:26.328Z,1007.31
2017-07-26T04:01:35.855Z,1007.32
2017-07-26T04:02:45.222Z,1007.29
2017-07-26T04:03:54.422Z,1007.31
2017-07-26T04:05:03.628Z,1007.36
2017-07-26T04:06:12.516Z,1007.28
2017-07-26T04:07:21.721Z,1007.3
2017-07-26T04:08:30.748Z,1007.28
2017-07-26T04:09:39.953Z,1007.27
2017-07-26T04:10:49.168Z,1007.28
2017-07-26T04:11:58.052Z,1007.3
2017-07-26T04:13:07.264Z,1007.3
2017-07-26T04:14:16.893Z,1007.35
2017-07-26T04:15:26.422Z,1007.3
2017-07-26T04:16:35.947Z,1007.34
2017-07-26T04:17:45.152Z,1007.34
2017-07-26T04:18:54.031Z,1007.39
2017-07-26T04:20:03.559Z,1007.37
2017-07-26T04:21:12.770Z,1007.38
2017-07-26T04:22:21.660Z,1007.35
2017-07-26T04:23:30.867Z,1007.37
2017-07-26T04:24:39.748Z,1007.36
2017-07-26T04:25:49.282Z,1007.39
2017-07-26T04:26:58.808Z,1007.38
2017-07-26T04:28:08.985Z,1007.37
2017-07-26T04:29:19.161Z,1007.39
2017-07-26T04:30:29.014Z,1007.38
2017-07-26T04:31:38.702Z,1007.35
2017-07-26T04:32:47.901Z,1007.4
2017-07-26T04:33:57.110Z,1007.38
2017-07-26T04:35:06.643Z,1007.34
2017-07-26T04:36:16.170Z,1007.35
2017-07-26T04:37:25.354Z,1007.34
2017-07-26T04:38:34.892Z,1007.36
2017-07-26T04:39:44.426Z,1007.36
2017-07-26T04:40:53.957Z,1007.35
2017-07-26T04:42:03.489Z,1007.34
2017-07-26T04:43:13.390Z,1007.31
2017-07-26T04:44:22.917Z,1007.3
2017-07-26T04:45:31.804Z,1007.3
2017-07-26T04:46:41.686Z,1007.24
2017-07-26T04:47:51.216Z,1007.21
2017-07-26T04:49:00.903Z,1007.21
2017-07-26T04:50:10.109Z,1007.22
2017-07-26T04:51:19.637Z,1007.23
2017-07-26T04:52:29.169Z,1007.26
2017-07-26T04:53:39.025Z,1007.24
2017-07-26T04:54:48.006Z,1007.23
2017-07-26T04:55:57.225Z,1007.23
2017-07-26T04:57:07.091Z,1007.26
2017-07-26T04:58:16.618Z,1007.29
2017-07-26T04:59:25.827Z,1007.26
2017-07-26T05:00:34.796Z,1007.3
2017-07-26T05:01:44.006Z,1007.26
2017-07-26T05:02:53.535Z,1007.27
2017-07-26T05:04:02.746Z,1007.28
2017-07-26T05:05:11.634Z,1007.26
2017-07-26T05:06:21.657Z,1007.31
2017-07-26T05:07:31.056Z,1007.24
2017-07-26T05:08:40.907Z,1007.28
2017-07-26T05:09:50.113Z,1007.26
2017-07-26T05:10:59.658Z,1007.28
2017-07-26T05:12:09.611Z,1007.29
2017-07-26T05:13:18.496Z,1007.26
2017-07-26T05:14:27.379Z,1007.26
2017-07-26T05:15:36.258Z,1007.23
2017-07-26T05:16:45.466Z,1007.22
2017-07-26T05:17:55.149Z,1007.28
2017-07-26T05:19:04.685Z,1007.21
2017-07-26T05:20:13.895Z,1007.19
2017-07-26T05:21:23.425Z,1007.19
2017-07-26T05:22:32.634Z,1007.2
2017-07-26T05:23:41.673Z,1007.17
2017-07-26T05:24:51.204Z,1007.16
2017-07-26T05:26:01.057Z,1007.23
2017-07-26T05:27:10.589Z,1007.21
2017-07-26T05:28:20.122Z,1007.18
2017-07-26T05:29:29.158Z,1007.23
2017-07-26T05:30:39.013Z,1007.24
2017-07-26T05:31:48.237Z,1007.28
2017-07-26T05:32:58.095Z,1007.29
2017-07-26T05:34:07.627Z,1007.32
2017-07-26T05:35:17.788Z,1007.32
2017-07-26T05:36:27.322Z,1007.32
2017-07-26T05:37:36.866Z,1007.33
2017-07-26T05:38:46.075Z,1007.36
2017-07-26T05:39:55.612Z,1007.32
2017-07-26T05:41:05.196Z,1007.37
2017-07-26T05:42:15.049Z,1007.33
2017-07-26T05:43:24.255Z,1007.37
2017-07-26T05:44:33.461Z,1007.39
2017-07-26T05:45:43.313Z,1007.42
2017-07-26T05:46:52.246Z,1007.44
2017-07-26T05:48:02.100Z,1007.42
2017-07-26T05:49:11.628Z,1007.51
2017-07-26T05:50:20.834Z,1007.47
2017-07-26T05:51:31.014Z,1007.52
2017-07-26T05:52:40.644Z,1007.51
2017-07-26T05:53:50.503Z,1007.51
2017-07-26T05:55:00.360Z,1007.54
2017-07-26T05:56:09.567Z,1007.61
2017-07-26T05:57:19.103Z,1007.56
2017-07-26T05:58:28.780Z,1007.52
2017-07-26T05:59:37.661Z,1007.55
2017-07-26T06:00:46.869Z,1007.59
2017-07-26T06:01:56.400Z,1007.55
2017-07-26T06:03:06.253Z,1007.55
2017-07-26T06:04:15.786Z,1007.59
2017-07-26T06:05:24.670Z,1007.56
2017-07-26T06:06:34.528Z,1007.58
2017-07-26T06:07:43.742Z,1007.49
2017-07-26T06:08:52.946Z,1007.48
2017-07-26T06:10:02.484Z,1007.49
2017-07-26T06:11:12.022Z,1007.46
2017-07-26T06:12:21.268Z,1007.48
2017-07-26T06:13:30.475Z,1007.46
2017-07-26T06:14:39.815Z,1007.45
2017-07-26T06:15:49.352Z,1007.46
2017-07-26T06:16:58.883Z,1007.46
2017-07-26T06:18:08.098Z,1007.48
2017-07-26T06:19:17.303Z,1007.49
2017-07-26T06:20:27.157Z,1007.47
2017-07-26T06:21:36.365Z,1007.47
2017-07-26T06:22:45.895Z,1007.49
2017-07-26T06:23:55.481Z,1007.47
2017-07-26T06:25:05.340Z,1007.51
2017-07-26T06:26:15.195Z,1007.47
2017-07-26T06:27:24.085Z,1007.44
2017-07-26T06:28:33.295Z,1007.44
2017-07-26T06:29:43.156Z,1007.43
2017-07-26T06:30:52.684Z,1007.4
2017-07-26T06:32:02.222Z,1007.4
2017-07-26T06:33:11.429Z,1007.4
2017-07-26T06:34:20.634Z,1007.4
2017-07-26T06:35:30.809Z,1007.43
2017-07-26T06:36:40.346Z,1007.4
2017-07-26T06:37:50.537Z,1007.42
2017-07-26T06:38:59.769Z,1007.44
2017-07-26T06:40:09.318Z,1007.44
2017-07-26T06:41:19.174Z,1007.48
2017-07-26T06:42:28.706Z,1007.51
2017-07-26T06:43:38.233Z,1007.55
2017-07-26T06:44:47.442Z,1007.58
2017-07-26T06:45:56.649Z,1007.62
2017-07-26T06:47:06.504Z,1007.63
2017-07-26T06:48:15.394Z,1007.58
2017-07-26T06:49:24.601Z,1007.64
2017-07-26T06:50:34.452Z,1007.6
2017-07-26T06:51:43.665Z,1007.64
2017-07-26T06:52:53.526Z,1007.62
2017-07-26T06:54:02.738Z,1007.62
2017-07-26T06:55:12.592Z,1007.67
2017-07-26T06:56:21.806Z,1007.67
2017-07-26T06:57:31.336Z,1007.62
2017-07-26T06:58:40.223Z,1007.69
2017-07-26T06:59:50.079Z,1007.66
2017-07-26T07:00:59.606Z,1007.63
2017-07-26T07:02:09.461Z,1007.62
2017-07-26T07:03:19.320Z,1007.56
2017-07-26T07:04:28.859Z,1007.49
2017-07-26T07:05:38.865Z,1007.53
2017-07-26T07:06:48.072Z,1007.48
2017-07-26T07:07:57.282Z,1007.46
2017-07-26T07:09:06.831Z,1007.47
2017-07-26T07:10:16.038Z,1007.51
2017-07-26T07:11:25.626Z,1007.49
2017-07-26T07:12:34.510Z,1007.48
2017-07-26T07:13:44.056Z,1007.5
2017-07-26T07:14:53.661Z,1007.55
2017-07-26T07:16:03.299Z,1007.54
2017-07-26T07:17:12.901Z,1007.54
2017-07-26T07:18:23.083Z,1007.64
2017-07-26T07:19:32.619Z,1007.61
2017-07-26T07:20:41.508Z,1007.68
2017-07-26T07:21:51.381Z,1007.67
2017-07-26T07:23:01.215Z,1007.69
2017-07-26T07:24:10.422Z,1007.63
2017-07-26T07:25:19.626Z,1007.63
2017-07-26T07:26:28.510Z,1007.66
2017-07-26T07:27:37.399Z,1007.65
2017-07-26T07:28:46.285Z,1007.61
2017-07-26T07:29:55.493Z,1007.61
2017-07-26T07:31:05.348Z,1007.6
2017-07-26T07:32:15.215Z,1007.63
2017-07-26T07:33:24.101Z,1007.57
2017-07-26T07:34:33.938Z,1007.62
2017-07-26T07:35:43.156Z,1007.63
2017-07-26T07:36:52.687Z,1007.62
2017-07-26T07:38:01.574Z,1007.61
2017-07-26T07:39:11.107Z,1007.62
2017-07-26T07:40:21.115Z,1007.67
2017-07-26T07:41:30.326Z,1007.6
2017-07-26T07:42:40.185Z,1007.66
2017-07-26T07:43:49.394Z,1007.74
2017-07-26T07:44:58.281Z,1007.67
2017-07-26T07:46:07.924Z,1007.75
2017-07-26T07:47:17.459Z,1007.74
2017-07-26T07:48:26.668Z,1007.8
2017-07-26T07:49:35.552Z,1007.71
2017-07-26T07:50:45.085Z,1007.76
2017-07-26T07:51:54.684Z,1007.78
2017-07-26T07:53:03.891Z,1007.83
2017-07-26T07:54:13.096Z,1007.79
2017-07-26T07:55:22.631Z,1007.79
2017-07-26T07:56:31.845Z,1007.8
2017-07-26T07:57:41.104Z,1007.8
2017-07-26T07:58:50.321Z,1007.79
2017-07-26T07:59:59.864Z,1007.82
2017-07-26T08:01:09.075Z,1007.83
2017-07-26T08:02:18.611Z,1007.82
2017-07-26T08:03:27.977Z,1007.8
2017-07-26T08:04:37.518Z,1007.82
2017-07-26T08:05:47.393Z,1007.82
2017-07-26T08:06:57.261Z,1007.8
2017-07-26T08:08:06.812Z,1007.82
2017-07-26T08:09:16.342Z,1007.85
2017-07-26T08:10:25.874Z,1007.83
2017-07-26T08:11:34.759Z,1007.86
2017-07-26T08:12:43.649Z,1007.93
2017-07-26T08:13:52.857Z,1007.86
2017-07-26T08:15:02.539Z,1007.88
2017-07-26T08:16:11.747Z,1007.88
2017-07-26T08:17:20.962Z,1007.86
2017-07-26T08:18:30.502Z,1007.86
2017-07-26T08:19:39.709Z,1007.85
2017-07-26T08:20:49.016Z,1007.87
2017-07-26T08:21:58.869Z,1007.83
2017-07-26T08:23:08.403Z,1007.81
2017-07-26T08:24:18.256Z,1007.87
2017-07-26T08:25:27.466Z,1007.89
2017-07-26T08:26:36.977Z,1007.9
2017-07-26T08:27:46.839Z,1007.86
2017-07-26T08:28:56.377Z,1007.87
2017-07-26T08:30:05.909Z,1007.87
2017-07-26T08:31:15.763Z,1007.88
2017-07-26T08:32:25.397Z,1007.87
2017-07-26T08:33:35.250Z,1007.88
2017-07-26T08:34:44.780Z,1007.82
2017-07-26T08:35:54.332Z,1007.8
2017-07-26T08:37:03.874Z,1007.79
2017-07-26T08:38:13.779Z,1007.78
2017-07-26T08:39:22.665Z,1007.79
2017-07-26T08:40:32.203Z,1007.75
2017-07-26T08:41:41.464Z,1007.74
2017-07-26T08:42:51.009Z,1007.75
2017-07-26T08:44:01.169Z,1007.75
2017-07-26T08:45:10.709Z,1007.74
2017-07-26T08:46:20.577Z,1007.75
2017-07-26T08:47:29.468Z,1007.76
2017-07-26T08:48:39.001Z,1007.77
2017-07-26T08:49:48.458Z,1007.74
2017-07-26T08:50:58.014Z,1007.75
2017-07-26T08:52:07.562Z,1007.77
2017-07-26T08:53:17.097Z,1007.79
2017-07-26T08:54:26.961Z,1007.81
2017-07-26T08:55:36.584Z,1007.79
2017-07-26T08:56:45.467Z,1007.8
2017-07-26T08:57:55.014Z,1007.83
2017-07-26T08:59:04.223Z,1007.78
2017-07-26T09:00:13.450Z,1007.78
2017-07-26T09:01:23.514Z,1007.77
2017-07-26T09:02:33.046Z,1007.8
2017-07-26T09:03:42.578Z,1007.8
2017-07-26T09:04:52.430Z,1007.79
2017-07-26T09:06:01.970Z,1007.8
2017-07-26T09:07:11.182Z,1007.79
2017-07-26T09:08:20.718Z,1007.8
2017-07-26T09:09:29.938Z,1007.83
2017-07-26T09:10:39.477Z,1007.83
2017-07-26T09:11:49.030Z,1007.74
2017-07-26T09:12:58.561Z,1007.8
2017-07-26T09:14:08.099Z,1007.82
2017-07-26T09:15:17.953Z,1007.79
2017-07-26T09:16:27.485Z,1007.79
2017-07-26T09:17:37.349Z,1007.83
2017-07-26T09:18:46.725Z,1007.8
2017-07-26T09:19:55.609Z,1007.79
2017-07-26T09:21:04.823Z,1007.84
2017-07-26T09:22:14.053Z,1007.85
2017-07-26T09:23:23.584Z,1007.84
2017-07-26T09:24:33.593Z,1007.88
2017-07-26T09:25:42.808Z,1007.87
2017-07-26T09:26:51.693Z,1007.8
2017-07-26T09:28:00.587Z,1007.79
2017-07-26T09:29:10.121Z,1007.83
2017-07-26T09:30:19.486Z,1007.83
2017-07-26T09:31:29.016Z,1007.8
2017-07-26T09:32:38.228Z,1007.78
2017-07-26T09:33:47.762Z,1007.79
2017-07-26T09:34:57.303Z,1007.79
2017-07-26T09:36:06.887Z,1007.87
2017-07-26T09:37:16.099Z,1007.82
2017-07-26T09:38:25.645Z,1007.86
2017-07-26T09:39:34.856Z,1007.86
2017-07-26T09:40:44.389Z,1007.85
2017-07-26T09:41:53.805Z,1007.86
2017-07-26T09:43:03.035Z,1007.87
2017-07-26T09:44:12.574Z,1007.87
2017-07-26T09:45:22.431Z,1007.85
2017-07-26T09:46:31.644Z,1007.84
2017-07-26T09:47:41.806Z,1007.92
2017-07-26T09:48:51.668Z,1007.86
2017-07-26T09:50:01.527Z,1007.87
2017-07-26T09:51:10.745Z,1007.89
2017-07-26T09:52:19.954Z,1007.88
2017-07-26T09:53:29.836Z,1007.88
2017-07-26T09:54:39.184Z,1007.94
2017-07-26T09:55:49.052Z,1007.87
2017-07-26T09:56:58.907Z,1007.87
2017-07-26T09:58:08.438Z,1007.86
2017-07-26T09:59:17.382Z,1007.81
2017-07-26T10:00:26.918Z,1007.88
2017-07-26T10:01:36.452Z,1007.87
2017-07-26T10:02:45.662Z,1007.82
2017-07-26T10:03:55.227Z,1007.72
2017-07-26T10:05:04.597Z,1007.81
2017-07-26T10:06:13.852Z,1007.84
2017-07-26T10:07:23.257Z,1007.8
2017-07-26T10:08:32.825Z,1007.78
2017-07-26T10:09:41.766Z,1007.82
2017-07-26T10:10:51.630Z,1007.8
2017-07-26T10:12:00.857Z,1007.81
2017-07-26T10:13:10.126Z,1007.8
2017-07-26T10:14:19.029Z,1007.75
2017-07-26T10:15:28.598Z,1007.8
2017-07-26T10:16:38.342Z,1007.91
2017-07-26T10:17:47.592Z,1007.81
2017-07-26T10:18:57.130Z,1007.79
2017-07-26T10:20:06.684Z,1007.79
2017-07-26T10:21:16.283Z,1007.82
2017-07-26T10:22:26.453Z,1007.84
2017-07-26T10:23:35.423Z,1007.81
2017-07-26T10:24:45.391Z,1007.78
2017-07-26T10:25:54.929Z,1007.83
2017-07-26T10:27:04.177Z,1007.84
2017-07-26T10:28:13.913Z,1007.83
2017-07-26T10:29:23.446Z,1007.85
2017-07-26T10:30:32.652Z,1007.83
2017-07-26T10:31:42.188Z,1007.86
2017-07-26T10:32:51.073Z,1007.88
2017-07-26T10:34:00.442Z,1007.86
2017-07-26T10:35:10.620Z,1007.89
2017-07-26T10:36:20.498Z,1007.87
2017-07-26T10:37:30.137Z,1007.92
2017-07-26T10:38:39.430Z,1007.91
2017-07-26T10:39:48.845Z,1007.93
2017-07-26T10:40:57.816Z,1007.9
2017-07-26T10:42:07.079Z,1008.01
2017-07-26T10:43:16.417Z,1008.01
2017-07-26T10:44:26.055Z,1008.05
2017-07-26T10:45:35.017Z,1008
2017-07-26T10:46:44.341Z,1008.01
2017-07-26T10:47:53.894Z,1008.03
2017-07-26T10:49:03.822Z,1007.98
2017-07-26T10:50:13.074Z,1007.96
2017-07-26T10:51:22.953Z,1007.98
2017-07-26T10:52:32.600Z,1008.01
2017-07-26T10:53:41.488Z,1008
2017-07-26T10:54:50.740Z,1008.04
2017-07-26T10:56:00.003Z,1008.04
2017-07-26T10:57:10.146Z,1008.06
2017-07-26T10:58:19.443Z,1008.1
2017-07-26T10:59:29.059Z,1008.09
2017-07-26T11:00:38.313Z,1008.08
2017-07-26T11:01:47.250Z,1008.09
2017-07-26T11:02:56.642Z,1007.99
2017-07-26T11:04:06.179Z,1007.97
2017-07-26T11:05:15.066Z,1007.9
2017-07-26T11:06:23.954Z,1007.99
2017-07-26T11:07:33.827Z,1008.04
2017-07-26T11:08:43.701Z,1008.07
2017-07-26T11:09:53.237Z,1008.01
2017-07-26T11:11:02.453Z,1008.05
2017-07-26T11:12:12.643Z,1008.01
2017-07-26T11:13:22.193Z,1008.03
2017-07-26T11:14:31.330Z,1007.99
2017-07-26T11:15:40.258Z,1008
2017-07-26T11:16:49.586Z,1008.03
2017-07-26T11:17:59.117Z,1008.06
2017-07-26T11:19:08.011Z,1008.02
2017-07-26T11:20:17.848Z,1007.98
2017-07-26T11:21:27.059Z,1008
2017-07-26T11:22:36.593Z,1008.01
2017-07-26T11:23:45.807Z,1008.02
2017-07-26T11:24:54.701Z,1008.05
2017-07-26T11:26:03.707Z,1008.08
2017-07-26T11:27:12.595Z,1008.05
2017-07-26T11:28:22.133Z,1008.06
2017-07-26T11:29:31.671Z,1008.08
2017-07-26T11:30:41.333Z,1008.09
2017-07-26T11:31:50.286Z,1008.07
2017-07-26T11:33:00.479Z,1008.09
2017-07-26T11:34:10.663Z,1008.07
2017-07-26T11:35:19.553Z,1008.07
2017-07-26T11:36:28.442Z,1008.09
2017-07-26T11:37:38.140Z,1008.12
2017-07-26T11:38:48.013Z,1008.09
2017-07-26T11:39:57.872Z,1008.1
2017-07-26T11:41:07.477Z,1008.09
2017-07-26T11:42:16.694Z,1008.06
2017-07-26T11:43:25.831Z,1008.17
2017-07-26T11:44:35.360Z,1008.06
2017-07-26T11:45:44.896Z,1008.14
2017-07-26T11:46:54.433Z,1008.1
2017-07-26T11:48:04.300Z,1008.05
2017-07-26T11:49:14.138Z,1008.05
2017-07-26T11:50:23.352Z,1008.08
2017-07-26T11:51:33.213Z,1008.06
2017-07-26T11:52:42.155Z,1008.11
2017-07-26T11:53:51.367Z,1008.07
2017-07-26T11:55:00.627Z,1008.06
2017-07-26T11:56:09.840Z,1008.03
2017-07-26T11:57:20.025Z,1007.98
2017-07-26T11:58:29.563Z,1007.98
2017-07-26T11:59:38.790Z,1008.01
2017-07-26T12:00:48.529Z,1008.01
2017-07-26T12:01:58.384Z,1008.08
2017-07-26T12:03:08.571Z,1008.14
2017-07-26T12:04:17.805Z,1008.1
2017-07-26T12:05:27.019Z,1008.03
2017-07-26T12:06:36.381Z,1008.16
2017-07-26T12:07:45.917Z,1008.15
2017-07-26T12:08:55.784Z,1008.16
2017-07-26T12:10:05.327Z,1008.15
2017-07-26T12:11:15.510Z,1008.23
2017-07-26T12:12:25.122Z,1008.2
2017-07-26T12:13:34.661Z,1008.11
2017-07-26T12:14:43.888Z,1008.14
2017-07-26T12:15:53.436Z,1008.1
2017-07-26T12:17:02.974Z,1008.1
2017-07-26T12:18:12.668Z,1008.18
2017-07-26T12:19:23.182Z,1008.21
2017-07-26T12:20:33.044Z,1008.19
2017-07-26T12:21:42.266Z,1008.19
2017-07-26T12:22:51.160Z,1008.25
2017-07-26T12:24:00.109Z,1008.27
2017-07-26T12:25:09.656Z,1008.25
2017-07-26T12:26:19.194Z,1008.18
2017-07-26T12:27:28.432Z,1008.19
2017-07-26T12:28:37.334Z,1008.21
2017-07-26T12:29:47.025Z,1008.22
2017-07-26T12:30:56.889Z,1008.2
2017-07-26T12:32:06.445Z,1008.23
2017-07-26T12:33:15.985Z,1008.28
2017-07-26T12:34:25.206Z,1008.17
2017-07-26T12:35:34.633Z,1008.21
2017-07-26T12:36:44.508Z,1008.22
2017-07-26T12:37:53.662Z,1008.22
2017-07-26T12:39:02.892Z,1008.28
2017-07-26T12:40:12.481Z,1008.14
2017-07-26T12:41:22.497Z,1008.26
2017-07-26T12:42:32.370Z,1008.31
2017-07-26T12:43:42.236Z,1008.33
2017-07-26T12:44:52.143Z,1008.32
2017-07-26T12:46:01.358Z,1008.3
2017-07-26T12:47:10.260Z,1008.28
2017-07-26T12:48:19.800Z,1008.22
2017-07-26T12:49:29.347Z,1008.26
2017-07-26T12:50:38.250Z,1008.25
2017-07-26T12:51:47.472Z,1008.28
2017-07-26T12:52:56.924Z,1008.34
2017-07-26T12:54:06.204Z,1008.31
2017-07-26T12:55:15.434Z,1008.36
2017-07-26T12:56:24.350Z,1008.24
2017-07-26T12:57:33.905Z,1008.25
2017-07-26T12:58:43.447Z,1008.2
2017-07-26T12:59:52.346Z,1008.24
2017-07-26T13:01:01.578Z,1008.23
2017-07-26T13:02:11.449Z,1008.15
2017-07-26T13:03:20.997Z,1008.16
2017-07-26T13:04:30.043Z,1008.19
2017-07-26T13:05:39.584Z,1008.26
2017-07-26T13:06:48.498Z,1008.26
2017-07-26T13:07:58.040Z,1008.23
2017-07-26T13:09:07.257Z,1008.18
2017-07-26T13:10:16.857Z,1008.17
2017-07-26T13:11:25.755Z,1008.19
2017-07-26T13:12:34.980Z,1008.2
2017-07-26T13:13:43.877Z,1008.2
2017-07-26T13:14:53.416Z,1008.27
2017-07-26T13:16:03.110Z,1008.26
2017-07-26T13:17:12.655Z,1008.19
2017-07-26T13:18:21.870Z,1008.17
2017-07-26T13:19:30.764Z,1008.17
2017-07-26T13:20:40.326Z,1008.17
2017-07-26T13:21:49.523Z,1008.16
2017-07-26T13:22:58.789Z,1008.1
2017-07-26T13:24:08.684Z,1008.19
2017-07-26T13:25:17.575Z,1008.19
2017-07-26T13:26:27.129Z,1008.27
2017-07-26T13:27:36.554Z,1008.23
2017-07-26T13:28:46.100Z,1008.22
2017-07-26T13:29:54.994Z,1008.28
2017-07-26T13:31:04.544Z,1008.32
2017-07-26T13:32:13.447Z,1008.32
2017-07-26T13:33:22.917Z,1008.3
2017-07-26T13:34:32.139Z,1008.26
2017-07-26T13:35:41.381Z,1008.28
2017-07-26T13:36:50.932Z,1008.2
2017-07-26T13:38:00.481Z,1008.21
2017-07-26T13:39:09.855Z,1008.16
2017-07-26T13:40:19.412Z,1008.25
2017-07-26T13:41:28.640Z,1008.21
2017-07-26T13:42:38.197Z,1008.22
2017-07-26T13:43:48.092Z,1008.26
2017-07-26T13:44:57.471Z,1008.28
2017-07-26T13:46:07.378Z,1008.26
2017-07-26T13:47:16.617Z,1008.26
2017-07-26T13:48:25.528Z,1008.22
2017-07-26T13:49:34.764Z,1008.22
2017-07-26T13:50:44.044Z,1008.19
2017-07-26T13:51:53.613Z,1008.29
2017-07-26T13:53:02.889Z,1008.26
2017-07-26T13:54:12.175Z,1008.28
2017-07-26T13:55:21.490Z,1008.25
2017-07-26T13:56:31.312Z,1008.36
2017-07-26T13:57:40.914Z,1008.41
2017-07-26T13:58:50.191Z,1008.38
2017-07-26T13:59:59.743Z,1008.4
2017-07-26T14:01:08.654Z,1008.33
2017-07-26T14:02:19.175Z,1008.36
2017-07-26T14:03:28.776Z,1008.42